Minot International Airport Minot US
ICAO: KMOT
IATA: MOT
Category: Medium
Scheduled Services: Yes

Elevation: 1716 ft
TransAlt. 18000 ft.

Airport Communications:
APP:119.6
CTAF:118.2
DEP:119.6
GND:121.9
GRAND FORKS RDO:122.2
MAGIC CITY TWR:118.2
UNICOM:122.95

KMOT Zoom In..

Runways:

(A) RW 08 length 6351 ft width 100 ft
---- / hdg 80

(B) RW 13 length 7700 ft width 150 ft
---- / hdg 128

(C) RW 26 length 6351 ft width 100 ft
---- / hdg 260

(D) RW 31 length 7700 ft width 150 ft
ILS 111.90 / hdg 308

Location; KMOT
Day. 13 / Time. 13.38 Zulu
* Altimeter: 29.73
* Temperature: 19° c. 66.2°f.
* Wind from: 030° Speed 04 kn.
Dewpoint: 14° c.
Visibility: 10 Statute Miles.
Clouds: Few 100 ft.
Clouds: Few 1000 ft.
Conditions: Thunderstorm.

KMOT 131338Z 03004KT 10SM TS FEW001 FEW100 19/14 A2973 RMK AO2 LTG DSNT N AND SW TSB37 T01890139

Going to: --> -->


Wind From 030°
Speed 04 kn.

 
 
jpsmedia worldairports.se 2020   terms of use